createdAt,value
2022-09-28T00:00:55.507Z,1.83
2022-09-28T00:01:57.792Z,1.40
2022-09-28T00:03:00.210Z,1.50
2022-09-28T00:04:02.699Z,1.63
2022-09-28T00:05:05.369Z,1.20
2022-09-28T00:06:10.510Z,1.65
2022-09-28T00:07:12.791Z,1.30
2022-09-28T00:08:14.959Z,1.40
2022-09-28T00:09:17.794Z,1.45
2022-09-28T00:10:23.567Z,1.50
2022-09-28T00:11:28.206Z,1.30
2022-09-28T00:12:31.529Z,1.38
2022-09-28T00:13:35.201Z,1.38
2022-09-28T00:14:37.437Z,1.60
2022-09-28T00:15:39.799Z,1.50
2022-09-28T00:16:44.153Z,1.35
2022-09-28T00:17:46.313Z,1.27
2022-09-28T00:18:51.039Z,1.40
2022-09-28T00:19:53.245Z,1.50
2022-09-28T00:21:12.274Z,1.33
2022-09-28T00:22:14.428Z,1.17
2022-09-28T00:23:16.840Z,1.23
2022-09-28T00:24:22.931Z,1.55
2022-09-28T00:25:28.081Z,1.50
2022-09-28T00:26:32.950Z,1.20
2022-09-28T00:27:35.216Z,1.27
2022-09-28T00:28:37.790Z,1.60
2022-09-28T00:29:40.005Z,1.77
2022-09-28T00:30:42.305Z,1.42
2022-09-28T00:31:44.609Z,1.70
2022-09-28T00:32:46.827Z,1.35
2022-09-28T00:33:53.596Z,1.45
2022-09-28T00:34:55.833Z,2.00
2022-09-28T00:35:58.763Z,1.30
2022-09-28T00:37:02.651Z,1.70
2022-09-28T00:38:04.815Z,2.05
2022-09-28T00:39:08.544Z,1.23
2022-09-28T00:40:10.744Z,1.48
2022-09-28T00:41:13.503Z,1.50
2022-09-28T00:42:21.429Z,1.40
2022-09-28T00:43:24.605Z,1.55
2022-09-28T00:44:26.710Z,1.48
2022-09-28T00:45:28.981Z,1.70
2022-09-28T00:46:35.194Z,1.65
2022-09-28T00:47:52.363Z,1.45
2022-09-28T00:49:03.082Z,1.23
2022-09-28T00:50:21.087Z,1.38
2022-09-28T00:51:25.773Z,1.45
2022-09-28T00:52:33.658Z,1.40
2022-09-28T00:53:39.277Z,1.42
2022-09-28T00:54:45.910Z,1.17
2022-09-28T00:55:58.857Z,1.30
2022-09-28T00:57:02.935Z,1.52
2022-09-28T00:58:09.000Z,1.20
2022-09-28T00:59:11.323Z,1.45
2022-09-28T01:00:15.916Z,1.60
2022-09-28T01:01:18.444Z,1.45
2022-09-28T01:02:21.712Z,1.40
2022-09-28T01:03:25.486Z,1.80
2022-09-28T01:04:30.176Z,1.52
2022-09-28T01:05:35.759Z,1.40
2022-09-28T01:06:38.901Z,1.50
2022-09-28T01:07:41.446Z,1.30
2022-09-28T01:08:45.861Z,1.45
2022-09-28T01:09:50.523Z,1.65
2022-09-28T01:10:52.998Z,1.48
2022-09-28T01:11:55.536Z,1.63
2022-09-28T01:12:58.816Z,1.23
2022-09-28T01:14:01.450Z,1.40
2022-09-28T01:15:05.537Z,1.33
2022-09-28T01:16:38.363Z,1.00
2022-09-28T01:18:11.578Z,1.08
2022-09-28T01:19:37.872Z,1.20
2022-09-28T01:20:54.080Z,1.33
2022-09-28T01:22:19.160Z,1.23
2022-09-28T01:23:54.826Z,1.25
2022-09-28T01:24:59.451Z,1.40
2022-09-28T01:26:44.560Z,1.35
2022-09-28T01:28:14.330Z,1.33
2022-09-28T01:29:37.234Z,1.17
2022-09-28T01:30:50.995Z,1.58
2022-09-28T01:32:01.399Z,1.40
2022-09-28T01:33:08.455Z,1.50
2022-09-28T01:34:24.135Z,1.20
2022-09-28T01:35:33.498Z,1.17
2022-09-28T01:36:42.365Z,1.40
2022-09-28T01:37:55.707Z,1.52
2022-09-28T01:39:23.420Z,1.45
2022-09-28T01:40:28.722Z,1.30
2022-09-28T01:41:33.429Z,1.33
2022-09-28T01:42:39.680Z,1.73
2022-09-28T01:43:48.359Z,1.00
2022-09-28T01:44:53.371Z,1.40
2022-09-28T01:46:01.887Z,1.10
2022-09-28T01:47:04.910Z,1.60
2022-09-28T01:48:10.002Z,1.40
2022-09-28T01:49:24.032Z,1.65
2022-09-28T01:50:30.709Z,1.13
2022-09-28T01:51:48.028Z,2.42
2022-09-28T01:52:56.321Z,1.33
2022-09-28T01:54:20.169Z,1.50
2022-09-28T01:55:34.297Z,1.48
2022-09-28T01:56:51.466Z,1.35
2022-09-28T01:57:56.387Z,1.17
2022-09-28T01:59:12.419Z,1.15
2022-09-28T02:00:18.227Z,1.58
2022-09-28T02:01:34.094Z,1.20
2022-09-28T02:02:43.368Z,1.20
2022-09-28T02:04:14.250Z,1.30
2022-09-28T02:05:21.409Z,1.10
2022-09-28T02:06:34.246Z,1.02
2022-09-28T02:07:50.020Z,1.13
2022-09-28T02:08:57.370Z,1.10
2022-09-28T02:10:19.559Z,1.20
2022-09-28T02:11:23.158Z,1.13
2022-09-28T02:12:35.078Z,1.02
2022-09-28T02:14:50.181Z,1.40
2022-09-28T02:16:31.526Z,1.25
2022-09-28T02:18:36.656Z,1.10
2022-09-28T02:19:40.010Z,1.50
2022-09-28T02:20:48.264Z,1.10
2022-09-28T02:22:03.361Z,1.30
2022-09-28T02:23:07.655Z,1.45
2022-09-28T02:24:23.360Z,0.90
2022-09-28T02:25:42.947Z,1.50
2022-09-28T02:26:48.217Z,1.20
2022-09-28T02:27:53.075Z,1.17
2022-09-28T02:28:55.516Z,1.40
2022-09-28T02:29:57.760Z,1.30
2022-09-28T02:31:01.009Z,1.30
2022-09-28T02:32:03.463Z,1.42
2022-09-28T02:33:16.681Z,1.40
2022-09-28T02:34:19.314Z,1.10
2022-09-28T02:35:22.469Z,1.30
2022-09-28T02:36:28.992Z,1.17
2022-09-28T02:37:31.500Z,1.30
2022-09-28T02:38:34.464Z,1.20
2022-09-28T02:39:37.438Z,1.30
2022-09-28T02:40:41.841Z,1.30
2022-09-28T02:42:17.177Z,1.15
2022-09-28T02:44:08.470Z,1.60
2022-09-28T02:45:37.326Z,1.17
2022-09-28T02:47:00.469Z,1.38
2022-09-28T02:48:15.538Z,1.05
2022-09-28T02:49:26.498Z,1.50
2022-09-28T02:50:56.350Z,1.20
2022-09-28T02:52:08.797Z,0.98
2022-09-28T02:53:39.322Z,1.08
2022-09-28T02:55:00.261Z,1.42
2022-09-28T02:57:19.694Z,1.33
2022-09-28T02:58:35.576Z,1.30
2022-09-28T02:59:47.604Z,1.63
2022-09-28T03:01:18.295Z,1.15
2022-09-28T03:02:25.880Z,1.42
2022-09-28T03:03:48.477Z,1.15
2022-09-28T03:05:19.842Z,1.58
2022-09-28T03:06:30.953Z,1.40
2022-09-28T03:07:40.453Z,1.38
2022-09-28T03:08:57.994Z,1.20
2022-09-28T03:10:13.751Z,1.48
2022-09-28T03:11:53.084Z,1.50
2022-09-28T03:12:56.629Z,1.20
2022-09-28T03:13:59.795Z,1.98
2022-09-28T03:15:30.196Z,1.30
2022-09-28T03:16:32.764Z,1.30
2022-09-28T03:17:35.000Z,1.20
2022-09-28T03:18:37.570Z,1.63
2022-09-28T03:19:40.070Z,1.30
2022-09-28T03:20:42.475Z,1.15
2022-09-28T03:21:44.947Z,1.23
2022-09-28T03:23:00.497Z,1.45
2022-09-28T03:24:11.117Z,1.55
2022-09-28T03:25:14.225Z,1.70
2022-09-28T03:26:16.832Z,1.38
2022-09-28T03:27:28.440Z,1.63
2022-09-28T03:28:30.865Z,1.60
2022-09-28T03:29:34.424Z,1.92
2022-09-28T03:30:41.654Z,2.63
2022-09-28T03:31:44.440Z,2.20
2022-09-28T03:32:47.304Z,1.67
2022-09-28T03:33:51.524Z,1.40
2022-09-28T03:34:54.367Z,1.42
2022-09-28T03:35:56.824Z,1.60
2022-09-28T03:36:59.351Z,1.77
2022-09-28T03:38:01.544Z,1.40
2022-09-28T03:39:05.991Z,1.38
2022-09-28T03:40:08.722Z,1.40
2022-09-28T03:41:10.897Z,1.50
2022-09-28T03:42:16.148Z,1.63
2022-09-28T03:43:23.638Z,1.42
2022-09-28T03:44:27.537Z,1.60
2022-09-28T03:45:29.727Z,1.60
2022-09-28T03:46:32.154Z,1.77
2022-09-28T03:47:39.959Z,1.60
2022-09-28T03:48:42.398Z,1.35
2022-09-28T03:49:46.309Z,1.38
2022-09-28T03:50:53.296Z,1.77
2022-09-28T03:51:55.471Z,1.40
2022-09-28T03:53:03.664Z,1.60
2022-09-28T03:54:06.273Z,1.67
2022-09-28T03:55:09.041Z,1.85
2022-09-28T03:56:14.580Z,1.30
2022-09-28T03:57:17.476Z,1.33
2022-09-28T03:58:23.532Z,1.48
2022-09-28T03:59:25.737Z,1.48
2022-09-28T04:00:28.247Z,1.60
2022-09-28T04:01:31.133Z,1.65
2022-09-28T04:02:34.902Z,1.80
2022-09-28T04:03:38.478Z,1.50
2022-09-28T04:04:40.767Z,1.65
2022-09-28T04:05:53.428Z,1.52
2022-09-28T04:06:55.648Z,1.40
2022-09-28T04:07:58.007Z,1.50
2022-09-28T04:09:00.332Z,1.60
2022-09-28T04:10:02.516Z,1.38
2022-09-28T04:11:05.149Z,1.50
2022-09-28T04:12:07.345Z,1.48
2022-09-28T04:13:09.690Z,1.42
2022-09-28T04:14:14.127Z,1.35
2022-09-28T04:15:16.894Z,1.60
2022-09-28T04:16:19.390Z,1.60
2022-09-28T04:17:40.235Z,1.77
2022-09-28T04:18:51.203Z,2.47
2022-09-28T04:20:19.402Z,1.60
2022-09-28T04:21:42.808Z,1.70
2022-09-28T04:22:48.453Z,1.73
2022-09-28T04:23:51.665Z,2.03
2022-09-28T04:24:53.913Z,1.60
2022-09-28T04:25:56.087Z,1.63
2022-09-28T04:27:18.177Z,2.05
2022-09-28T04:28:39.187Z,1.65
2022-09-28T04:29:41.848Z,1.70
2022-09-28T04:30:46.820Z,1.98
2022-09-28T04:31:51.295Z,1.80
2022-09-28T04:32:54.765Z,1.70
2022-09-28T04:33:57.747Z,2.03
2022-09-28T04:35:00.509Z,1.60
2022-09-28T04:36:02.857Z,1.50
2022-09-28T04:37:05.635Z,1.40
2022-09-28T04:38:08.067Z,1.52
2022-09-28T04:39:16.427Z,1.55
2022-09-28T04:40:21.956Z,1.70
2022-09-28T04:41:25.235Z,1.50
2022-09-28T04:42:27.374Z,1.92
2022-09-28T04:43:29.886Z,1.50
2022-09-28T04:44:32.366Z,1.52
2022-09-28T04:45:39.989Z,1.63
2022-09-28T04:46:46.071Z,1.75
2022-09-28T04:48:10.755Z,1.70
2022-09-28T04:49:37.050Z,1.65
2022-09-28T04:50:44.881Z,1.42
2022-09-28T04:51:54.389Z,1.30
2022-09-28T04:52:56.688Z,1.52
2022-09-28T04:53:59.377Z,1.40
2022-09-28T04:55:01.548Z,1.58
2022-09-28T04:56:07.009Z,1.70
2022-09-28T04:57:09.986Z,1.33
2022-09-28T04:58:13.312Z,1.83
2022-09-28T04:59:15.734Z,1.30
2022-09-28T05:00:18.617Z,1.60
2022-09-28T05:01:35.079Z,1.60
2022-09-28T05:04:37.514Z,1.90
2022-09-28T05:06:01.081Z,1.38
2022-09-28T05:07:12.669Z,1.63
2022-09-28T05:08:15.321Z,1.30
2022-09-28T05:09:17.786Z,1.40
2022-09-28T05:10:20.191Z,1.45
2022-09-28T05:11:22.942Z,1.30
2022-09-28T05:12:25.245Z,1.70
2022-09-28T05:13:28.846Z,1.73
2022-09-28T05:14:31.054Z,1.80
2022-09-28T05:15:37.718Z,1.60
2022-09-28T05:16:40.380Z,1.58
2022-09-28T05:18:00.986Z,1.75
2022-09-28T05:19:17.344Z,1.60
2022-09-28T05:20:19.836Z,1.58
2022-09-28T05:21:24.804Z,1.73
2022-09-28T05:22:27.082Z,1.90
2022-09-28T05:23:30.559Z,1.42
2022-09-28T05:24:32.963Z,1.48
2022-09-28T05:25:35.460Z,1.40
2022-09-28T05:26:44.889Z,1.85
2022-09-28T05:27:47.396Z,1.30
2022-09-28T05:29:05.890Z,1.77
2022-09-28T05:30:36.894Z,1.40
2022-09-28T05:32:02.607Z,2.03
2022-09-28T05:33:23.194Z,1.48
2022-09-28T05:34:31.966Z,1.48
2022-09-28T05:35:34.198Z,1.55
2022-09-28T05:36:37.058Z,1.40
2022-09-28T05:37:41.172Z,1.90
2022-09-28T05:38:43.696Z,2.00
2022-09-28T05:39:45.924Z,1.67
2022-09-28T05:40:48.199Z,1.77
2022-09-28T05:41:50.525Z,2.22
2022-09-28T05:42:52.909Z,2.13
2022-09-28T05:43:55.271Z,1.90
2022-09-28T05:45:00.349Z,1.95
2022-09-28T05:46:02.790Z,2.00
2022-09-28T05:47:05.287Z,1.83
2022-09-28T05:48:07.531Z,2.08
2022-09-28T05:49:09.739Z,2.00
2022-09-28T05:50:15.687Z,1.95
2022-09-28T05:51:19.366Z,1.70
2022-09-28T05:52:22.244Z,1.85
2022-09-28T05:53:24.731Z,1.50
2022-09-28T05:54:27.192Z,2.00
2022-09-28T05:55:29.828Z,1.40
2022-09-28T05:56:32.323Z,1.58
2022-09-28T05:57:34.663Z,1.50
2022-09-28T05:58:37.449Z,1.50
2022-09-28T05:59:40.250Z,1.48
2022-09-28T06:00:43.049Z,1.73
2022-09-28T06:01:45.632Z,1.60
2022-09-28T06:02:56.339Z,1.60
2022-09-28T06:03:58.529Z,1.05
2022-09-28T06:05:01.762Z,1.40
2022-09-28T06:06:04.290Z,1.30
2022-09-28T06:07:07.253Z,1.27
2022-09-28T06:08:10.660Z,1.13
2022-09-28T06:09:19.360Z,1.55
2022-09-28T06:10:35.506Z,1.20
2022-09-28T06:11:38.343Z,1.30
2022-09-28T06:13:01.512Z,1.80
2022-09-28T06:14:05.076Z,1.52
2022-09-28T06:15:08.514Z,1.58
2022-09-28T06:16:16.508Z,1.45
2022-09-28T06:17:19.116Z,1.30
2022-09-28T06:18:27.482Z,1.40
2022-09-28T06:21:02.930Z,1.30
2022-09-28T06:22:11.012Z,1.20
2022-09-28T06:23:20.787Z,1.23
2022-09-28T06:24:23.282Z,1.50
2022-09-28T06:25:27.689Z,1.58
2022-09-28T06:26:30.275Z,1.33
2022-09-28T06:27:34.196Z,1.48
2022-09-28T06:28:37.117Z,1.38
2022-09-28T06:29:40.997Z,2.40
2022-09-28T06:30:45.217Z,2.03
2022-09-28T06:31:51.605Z,1.70
2022-09-28T06:32:56.292Z,2.15
2022-09-28T06:34:02.197Z,2.28
2022-09-28T06:35:05.008Z,1.50
2022-09-28T06:36:08.531Z,1.67
2022-09-28T06:37:10.791Z,1.42
2022-09-28T06:38:13.160Z,1.40
2022-09-28T06:39:15.440Z,1.33
2022-09-28T06:40:19.261Z,1.50
2022-09-28T06:41:22.460Z,1.55
2022-09-28T06:42:24.680Z,1.90
2022-09-28T06:43:48.215Z,1.48
2022-09-28T06:45:21.827Z,1.65
2022-09-28T06:46:46.625Z,1.58
2022-09-28T06:47:59.713Z,1.70
2022-09-28T06:49:18.649Z,1.45
2022-09-28T06:50:41.324Z,2.20
2022-09-28T06:51:49.054Z,1.80
2022-09-28T06:52:57.215Z,1.30
2022-09-28T06:54:08.121Z,1.33
2022-09-28T06:55:35.275Z,1.40
2022-09-28T06:56:38.474Z,1.10
2022-09-28T06:57:40.697Z,1.30
2022-09-28T06:58:43.023Z,1.13
2022-09-28T06:59:46.851Z,1.10
2022-09-28T07:00:51.893Z,1.25
2022-09-28T07:01:54.727Z,1.17
2022-09-28T07:04:37.204Z,0.90
2022-09-28T07:06:11.527Z,1.75
2022-09-28T07:07:37.150Z,1.20
2022-09-28T07:09:08.503Z,1.50
2022-09-28T07:10:34.726Z,1.10
2022-09-28T07:11:55.733Z,1.30
2022-09-28T07:13:43.565Z,1.45
2022-09-28T07:14:47.714Z,1.10
2022-09-28T07:15:59.462Z,1.33
2022-09-28T07:17:13.033Z,1.15
2022-09-28T07:18:17.903Z,1.20
2022-09-28T07:19:20.320Z,1.42
2022-09-28T07:20:22.686Z,2.38
2022-09-28T07:21:30.287Z,1.80
2022-09-28T07:22:42.831Z,2.13
2022-09-28T07:23:53.757Z,1.45
2022-09-28T07:24:59.429Z,1.88
2022-09-28T07:26:33.178Z,2.00
2022-09-28T07:27:38.326Z,1.30
2022-09-28T07:28:54.272Z,1.45
2022-09-28T07:30:33.439Z,1.77
2022-09-28T07:31:55.860Z,1.70
2022-09-28T07:34:52.483Z,1.63
2022-09-28T07:36:08.927Z,1.50
2022-09-28T07:37:12.460Z,1.50
2022-09-28T07:38:15.208Z,1.88
2022-09-28T07:39:17.542Z,14.82
2022-09-28T07:40:39.013Z,2.47
2022-09-28T07:41:41.459Z,1.42
2022-09-28T07:42:45.618Z,2.00
2022-09-28T07:43:49.783Z,2.10
2022-09-28T07:44:52.367Z,1.95
2022-09-28T07:45:55.735Z,1.90
2022-09-28T07:46:58.919Z,1.98
2022-09-28T07:48:36.773Z,2.08
2022-09-28T07:49:59.139Z,1.90
2022-09-28T07:51:17.912Z,2.38
2022-09-28T07:52:29.992Z,2.17
2022-09-28T07:53:42.188Z,2.00
2022-09-28T07:55:07.165Z,2.63
2022-09-28T07:56:28.412Z,2.50
2022-09-28T07:58:01.804Z,2.30
2022-09-28T07:59:26.791Z,2.20
2022-09-28T08:00:52.314Z,2.10
2022-09-28T08:01:54.620Z,2.55
2022-09-28T08:03:00.245Z,2.70
2022-09-28T08:04:03.232Z,2.83
2022-09-28T08:05:05.944Z,2.28
2022-09-28T08:06:11.235Z,2.28
2022-09-28T08:07:14.251Z,3.22
2022-09-28T08:08:18.516Z,2.63
2022-09-28T08:09:21.147Z,3.00
2022-09-28T08:10:46.961Z,2.72
2022-09-28T08:12:19.672Z,2.65
2022-09-28T08:13:41.331Z,2.67
2022-09-28T08:15:11.411Z,2.63
2022-09-28T08:16:25.562Z,3.20
2022-09-28T08:17:48.768Z,3.28
2022-09-28T08:18:54.183Z,3.25
2022-09-28T08:20:15.113Z,3.28
2022-09-28T08:21:36.312Z,3.42
2022-09-28T08:22:38.945Z,3.00
2022-09-28T08:23:41.746Z,3.35
2022-09-28T08:24:45.017Z,3.40
2022-09-28T08:25:51.089Z,3.38
2022-09-28T08:26:55.578Z,4.47
2022-09-28T08:28:00.095Z,3.47
2022-09-28T08:29:03.899Z,3.97
2022-09-28T08:30:38.544Z,3.40
2022-09-28T08:31:57.268Z,3.22
2022-09-28T08:33:04.223Z,4.32
2022-09-28T08:34:18.895Z,3.88
2022-09-28T08:35:42.094Z,3.70
2022-09-28T08:36:49.024Z,3.67
2022-09-28T08:38:20.231Z,4.03
2022-09-28T08:39:41.409Z,4.07
2022-09-28T08:41:36.930Z,3.78
2022-09-28T08:42:58.011Z,3.47
2022-09-28T08:44:24.092Z,4.57
2022-09-28T08:45:48.135Z,3.50
2022-09-28T08:48:05.819Z,3.85
2022-09-28T08:49:26.264Z,4.20
2022-09-28T08:50:53.491Z,4.20
2022-09-28T08:52:23.605Z,4.40
2022-09-28T08:53:51.531Z,5.32
2022-09-28T08:55:20.406Z,4.38
2022-09-28T08:57:45.254Z,4.32
2022-09-28T08:58:54.794Z,4.35
2022-09-28T08:59:59.823Z,4.15
2022-09-28T09:01:08.924Z,4.72
2022-09-28T09:02:20.303Z,4.80
2022-09-28T09:03:34.189Z,4.70
2022-09-28T09:04:57.758Z,4.30
2022-09-28T09:06:29.743Z,4.13
2022-09-28T09:08:01.370Z,4.65
2022-09-28T09:09:15.648Z,3.97
2022-09-28T09:10:37.426Z,4.38
2022-09-28T09:12:13.314Z,4.88
2022-09-28T09:13:17.489Z,4.22
2022-09-28T09:14:46.587Z,6.38
2022-09-28T09:16:26.047Z,4.97
2022-09-28T09:17:49.570Z,4.18
2022-09-28T09:19:10.735Z,4.50
2022-09-28T09:21:06.169Z,4.22
2022-09-28T09:22:40.873Z,4.57
2022-09-28T09:23:47.456Z,4.35
2022-09-28T09:25:11.704Z,4.40
2022-09-28T09:26:35.276Z,4.22
2022-09-28T09:28:13.292Z,4.68
2022-09-28T09:29:31.559Z,4.40
2022-09-28T09:30:55.231Z,4.60
2022-09-28T09:32:25.679Z,5.03
2022-09-28T09:33:47.491Z,5.03
2022-09-28T09:35:30.663Z,4.60
2022-09-28T09:36:48.490Z,3.97
2022-09-28T09:38:41.026Z,5.65
2022-09-28T09:42:23.590Z,4.13
2022-09-28T09:44:26.793Z,4.18
2022-09-28T09:46:13.954Z,4.05
2022-09-28T09:47:54.326Z,4.40
2022-09-28T09:49:07.870Z,3.72
2022-09-28T09:50:30.038Z,4.22
2022-09-28T09:51:43.923Z,3.90
2022-09-28T09:52:55.887Z,3.60
2022-09-28T09:54:06.304Z,3.35
2022-09-28T09:55:21.747Z,3.58
2022-09-28T09:56:30.627Z,5.60
2022-09-28T09:57:44.067Z,3.22
2022-09-28T09:59:26.247Z,3.58
2022-09-28T10:00:40.612Z,3.35
2022-09-28T10:01:56.495Z,3.40
2022-09-28T10:03:30.223Z,3.15
2022-09-28T10:04:46.708Z,3.20
2022-09-28T10:06:00.552Z,3.58
2022-09-28T10:07:09.787Z,3.10
2022-09-28T10:08:20.134Z,3.35
2022-09-28T10:09:27.877Z,2.80
2022-09-28T10:11:08.382Z,2.83
2022-09-28T10:12:21.754Z,2.92
2022-09-28T10:13:24.041Z,3.35
2022-09-28T10:14:31.060Z,3.13
2022-09-28T10:15:41.300Z,2.97
2022-09-28T10:17:05.068Z,3.13
2022-09-28T10:18:26.508Z,3.13
2022-09-28T10:19:47.289Z,2.92
2022-09-28T10:21:13.230Z,2.95
2022-09-28T10:22:35.190Z,3.33
2022-09-28T10:23:45.227Z,3.20
2022-09-28T10:24:52.449Z,2.90
2022-09-28T10:26:05.405Z,2.90
2022-09-28T10:27:13.701Z,3.50
2022-09-28T10:28:26.028Z,12.20
2022-09-28T10:29:34.799Z,2.88
2022-09-28T10:30:44.386Z,3.08
2022-09-28T10:31:52.103Z,2.90
2022-09-28T10:33:29.421Z,3.13
2022-09-28T10:34:32.095Z,2.92
2022-09-28T10:35:43.062Z,2.85
2022-09-28T10:36:52.261Z,2.70
2022-09-28T10:38:00.133Z,3.08
2022-09-28T10:39:28.979Z,2.50
2022-09-28T10:40:43.532Z,3.50
2022-09-28T10:41:50.527Z,2.75
2022-09-28T10:43:05.171Z,3.28
2022-09-28T10:44:17.492Z,3.72
2022-09-28T10:45:37.148Z,2.90
2022-09-28T10:46:39.474Z,3.30
2022-09-28T10:47:47.493Z,3.03
2022-09-28T10:48:54.479Z,3.28
2022-09-28T10:50:00.873Z,2.88
2022-09-28T10:51:07.507Z,3.78
2022-09-28T10:52:46.607Z,3.10
2022-09-28T10:54:16.578Z,3.25
2022-09-28T10:55:21.696Z,3.25
2022-09-28T10:56:28.654Z,2.90
2022-09-28T10:57:37.571Z,3.13
2022-09-28T10:58:43.017Z,3.28
2022-09-28T10:59:50.027Z,3.67
2022-09-28T11:01:02.380Z,3.50
2022-09-28T11:02:16.973Z,2.88
2022-09-28T11:03:29.879Z,2.92
2022-09-28T11:04:41.639Z,3.20
2022-09-28T11:05:57.754Z,2.97
2022-09-28T11:07:02.230Z,2.50
2022-09-28T11:08:07.688Z,3.00
2022-09-28T11:09:30.778Z,3.30
2022-09-28T11:10:37.271Z,3.03
2022-09-28T11:11:47.759Z,2.75
2022-09-28T11:12:51.328Z,2.55
2022-09-28T11:14:01.646Z,2.53
2022-09-28T11:15:16.818Z,2.72
2022-09-28T11:16:39.332Z,3.60
2022-09-28T11:17:43.745Z,2.67
2022-09-28T11:18:47.257Z,2.53
2022-09-28T11:19:50.238Z,2.22
2022-09-28T11:20:52.537Z,2.50
2022-09-28T11:21:57.294Z,3.08
2022-09-28T11:23:30.077Z,2.20
2022-09-28T11:24:37.592Z,2.45
2022-09-28T11:25:41.182Z,2.85
2022-09-28T11:26:46.450Z,2.83
2022-09-28T11:27:54.228Z,2.95
2022-09-28T11:28:56.741Z,3.22
2022-09-28T11:30:49.924Z,2.90
2022-09-28T11:32:24.349Z,3.67
2022-09-28T11:33:50.011Z,3.83
2022-09-28T11:35:19.845Z,2.30
2022-09-28T11:36:54.461Z,2.90
2022-09-28T11:38:05.035Z,1.60
2022-09-28T11:40:16.212Z,2.15
2022-09-28T11:41:45.815Z,1.70
2022-09-28T11:44:48.902Z,2.35
2022-09-28T11:46:02.185Z,1.85
2022-09-28T11:47:26.361Z,1.30
2022-09-28T11:48:43.089Z,3.40
2022-09-28T11:50:23.539Z,1.70
2022-09-28T11:51:36.326Z,1.63
2022-09-28T11:53:09.755Z,1.77
2022-09-28T11:54:26.154Z,1.30
2022-09-28T11:55:54.604Z,1.20
2022-09-28T11:56:59.858Z,1.10
2022-09-28T11:58:11.700Z,1.00
2022-09-28T11:59:29.379Z,1.35
2022-09-28T12:00:38.190Z,1.30
2022-09-28T12:01:57.364Z,1.17
2022-09-28T12:03:18.521Z,1.35
2022-09-28T12:04:40.875Z,1.20
2022-09-28T12:06:02.867Z,1.00
2022-09-28T12:07:22.317Z,1.45
2022-09-28T12:08:30.183Z,0.90
2022-09-28T12:09:41.458Z,1.88
2022-09-28T12:11:32.447Z,2.13
2022-09-28T12:13:04.605Z,1.45
2022-09-28T12:14:16.116Z,1.40
2022-09-28T12:15:38.176Z,1.38
2022-09-28T12:17:06.229Z,0.70
2022-09-28T12:18:41.352Z,1.05
2022-09-28T12:19:56.742Z,1.33
2022-09-28T12:21:06.367Z,1.15
2022-09-28T12:22:17.286Z,0.90
2022-09-28T12:24:30.599Z,0.57
2022-09-28T12:26:01.089Z,0.98
2022-09-28T12:27:17.466Z,1.02
2022-09-28T12:28:39.787Z,1.67
2022-09-28T12:29:56.149Z,1.02
2022-09-28T12:31:12.046Z,1.00
2022-09-28T12:32:17.012Z,1.10
2022-09-28T12:33:19.222Z,1.48
2022-09-28T12:34:22.661Z,1.00
2022-09-28T12:35:38.771Z,1.15
2022-09-28T12:36:43.969Z,1.05
2022-09-28T12:38:11.191Z,1.40
2022-09-28T12:39:57.058Z,1.20
2022-09-28T12:41:16.658Z,0.90
2022-09-28T12:42:55.392Z,1.02
2022-09-28T12:44:10.288Z,1.10
2022-09-28T12:45:38.463Z,1.00
2022-09-28T12:47:25.804Z,1.20
2022-09-28T12:48:36.186Z,1.08
2022-09-28T12:50:37.687Z,1.20
2022-09-28T12:51:33.032Z,1.30
2022-09-28T12:53:07.384Z,1.30
2022-09-28T12:54:28.246Z,1.00
2022-09-28T12:55:56.251Z,1.10
2022-09-28T12:57:10.523Z,0.93
2022-09-28T12:59:03.691Z,0.90
2022-09-28T13:00:16.060Z,0.90
2022-09-28T13:02:04.728Z,1.10
2022-09-28T13:03:45.708Z,0.88
2022-09-28T13:05:03.347Z,1.27
2022-09-28T13:06:17.349Z,1.83
2022-09-28T13:07:54.041Z,1.05
2022-09-28T13:09:10.035Z,0.82
2022-09-28T13:10:40.503Z,0.80
2022-09-28T13:11:42.685Z,0.82
2022-09-28T13:13:12.488Z,0.90
2022-09-28T13:14:17.687Z,0.70
2022-09-28T13:15:52.507Z,1.08
2022-09-28T13:17:16.024Z,2.80
2022-09-28T13:18:44.283Z,0.80
2022-09-28T13:19:46.518Z,0.75
2022-09-28T13:21:00.584Z,1.23
2022-09-28T13:22:24.384Z,1.38
2022-09-28T13:23:38.691Z,1.10
2022-09-28T13:24:44.378Z,0.65
2022-09-28T13:25:50.944Z,1.10
2022-09-28T13:26:57.789Z,1.52
2022-09-28T13:28:03.934Z,1.10
2022-09-28T13:29:15.928Z,2.45
2022-09-28T13:30:19.308Z,1.85
2022-09-28T13:31:33.165Z,1.35
2022-09-28T13:32:38.919Z,1.25
2022-09-28T13:33:44.394Z,0.98
2022-09-28T13:34:49.833Z,1.10
2022-09-28T13:35:52.152Z,1.42
2022-09-28T13:37:22.167Z,1.00
2022-09-28T13:38:25.374Z,1.23
2022-09-28T13:39:45.872Z,0.90
2022-09-28T13:41:11.486Z,0.90
2022-09-28T13:42:45.096Z,1.10
2022-09-28T13:44:07.500Z,1.30
2022-09-28T13:45:22.023Z,1.10
2022-09-28T13:46:36.272Z,0.80
2022-09-28T13:47:44.654Z,1.02
2022-09-28T13:48:57.369Z,0.75
2022-09-28T13:50:26.947Z,0.80
2022-09-28T13:51:57.148Z,0.82
2022-09-28T13:53:19.116Z,0.95
2022-09-28T13:54:21.224Z,1.15
2022-09-28T13:55:53.917Z,0.90
2022-09-28T13:57:19.707Z,0.70
2022-09-28T13:58:29.666Z,0.65
2022-09-28T13:59:34.426Z,0.77
2022-09-28T14:00:53.643Z,0.80
2022-09-28T14:02:09.493Z,0.80
2022-09-28T14:03:23.436Z,1.10
2022-09-28T14:04:53.244Z,0.90
2022-09-28T14:06:23.293Z,0.65
2022-09-28T14:07:36.295Z,0.55
2022-09-28T14:08:44.762Z,0.70
2022-09-28T14:09:48.593Z,0.80
2022-09-28T14:10:56.163Z,1.00
2022-09-28T14:12:04.264Z,1.02
2022-09-28T14:13:09.197Z,1.13
2022-09-28T14:14:13.639Z,1.20
2022-09-28T14:15:39.461Z,1.23
2022-09-28T14:16:42.777Z,1.48
2022-09-28T14:17:52.685Z,1.85
2022-09-28T14:19:02.374Z,1.47
2022-09-28T14:20:08.215Z,2.10
2022-09-28T14:21:35.112Z,2.40
2022-09-28T14:22:57.793Z,1.33
2022-09-28T14:24:15.524Z,1.40
2022-09-28T14:25:27.604Z,2.10
2022-09-28T14:26:51.356Z,1.83
2022-09-28T14:28:02.231Z,1.63
2022-09-28T14:30:15.241Z,3.17
2022-09-28T14:31:26.415Z,3.45
2022-09-28T14:32:37.187Z,3.17
2022-09-28T14:33:42.642Z,4.35
2022-09-28T14:34:48.013Z,1.98
2022-09-28T14:35:58.292Z,2.75
2022-09-28T14:37:22.272Z,2.17
2022-09-28T14:38:53.897Z,2.20
2022-09-28T14:40:14.785Z,2.50
2022-09-28T14:41:17.921Z,2.45
2022-09-28T14:42:24.094Z,2.90
2022-09-28T14:43:35.300Z,2.33
2022-09-28T14:45:06.398Z,2.25
2022-09-28T14:46:15.684Z,2.05
2022-09-28T14:47:34.278Z,2.40
2022-09-28T14:48:59.106Z,3.08
2022-09-28T14:50:18.268Z,2.22
2022-09-28T14:51:35.449Z,2.42
2022-09-28T14:52:46.470Z,3.03
2022-09-28T14:53:50.845Z,2.25
2022-09-28T14:54:54.671Z,2.75
2022-09-28T14:55:59.947Z,2.70
2022-09-28T14:57:17.578Z,2.50
2022-09-28T14:58:23.731Z,2.47
2022-09-28T14:59:30.348Z,3.10
2022-09-28T15:00:33.004Z,3.15
2022-09-28T15:01:36.338Z,2.92
2022-09-28T15:02:39.508Z,2.67
2022-09-28T15:03:43.556Z,2.53
2022-09-28T15:05:02.661Z,2.35
2022-09-28T15:06:05.021Z,2.25
2022-09-28T15:07:22.094Z,2.30
2022-09-28T15:08:35.931Z,2.35
2022-09-28T15:09:39.274Z,2.35
2022-09-28T15:10:47.282Z,2.10
2022-09-28T15:11:55.445Z,4.07
2022-09-28T15:13:01.288Z,2.40
2022-09-28T15:14:08.246Z,2.22
2022-09-28T15:15:38.511Z,2.67
2022-09-28T15:16:40.676Z,1.70
2022-09-28T15:17:53.353Z,1.85
2022-09-28T15:19:08.970Z,2.20
2022-09-28T15:20:24.105Z,2.15
2022-09-28T15:21:34.491Z,1.95
2022-09-28T15:22:37.904Z,1.80
2022-09-28T15:23:45.456Z,1.70
2022-09-28T15:25:02.429Z,1.88
2022-09-28T15:26:08.560Z,2.28
2022-09-28T15:27:15.982Z,2.08
2022-09-28T15:28:22.121Z,1.85
2022-09-28T15:29:28.126Z,2.50
2022-09-28T15:30:36.380Z,2.50
2022-09-28T15:31:38.653Z,2.00
2022-09-28T15:32:40.867Z,2.13
2022-09-28T15:34:01.883Z,2.42
2022-09-28T15:36:30.018Z,2.58
2022-09-28T15:37:40.308Z,2.33
2022-09-28T15:38:43.201Z,2.10
2022-09-28T15:39:48.084Z,2.17
2022-09-28T15:40:50.802Z,2.22
2022-09-28T15:41:53.275Z,2.58
2022-09-28T15:42:59.245Z,2.33
2022-09-28T15:44:10.725Z,2.78
2022-09-28T15:45:26.768Z,2.50
2022-09-28T15:46:30.862Z,2.88
2022-09-28T15:47:33.906Z,2.67
2022-09-28T15:48:36.799Z,2.67
2022-09-28T15:49:46.844Z,3.40
2022-09-28T15:51:00.289Z,2.92
2022-09-28T15:52:03.501Z,2.85
2022-09-28T15:53:06.311Z,2.80
2022-09-28T15:54:21.666Z,2.90
2022-09-28T15:55:34.527Z,3.40
2022-09-28T15:56:53.573Z,3.40
2022-09-28T15:58:05.686Z,2.42
2022-09-28T15:59:14.013Z,2.42
2022-09-28T16:00:30.188Z,2.60
2022-09-28T16:01:37.869Z,2.55
2022-09-28T16:03:00.295Z,2.42
2022-09-28T16:04:33.125Z,2.40
2022-09-28T16:06:00.188Z,4.00
2022-09-28T16:07:41.569Z,2.70
2022-09-28T16:10:11.582Z,2.70
2022-09-28T16:11:35.572Z,2.45
2022-09-28T16:12:37.690Z,2.55
2022-09-28T16:13:45.561Z,2.15
2022-09-28T16:14:51.362Z,2.30
2022-09-28T16:15:59.707Z,3.10
2022-09-28T16:17:02.201Z,2.10
2022-09-28T16:18:20.224Z,2.35
2022-09-28T16:19:25.367Z,2.25
2022-09-28T16:20:41.274Z,2.53
2022-09-28T16:21:46.598Z,2.92
2022-09-28T16:22:49.442Z,2.88
2022-09-28T16:23:55.670Z,2.75
2022-09-28T16:25:02.061Z,2.85
2022-09-28T16:26:25.134Z,2.80